createdAt,value
2018-11-03T00:01:10.559Z,70.60
2018-11-03T00:03:40.658Z,70.46
2018-11-03T00:06:10.015Z,70.77
2018-11-03T00:08:39.579Z,70.82
2018-11-03T00:11:08.130Z,69.65
2018-11-03T00:13:38.148Z,70.17
2018-11-03T00:16:07.272Z,69.98
2018-11-03T00:18:36.315Z,70.23
2018-11-03T00:21:05.028Z,69.63
2018-11-03T00:23:34.845Z,70.01
2018-11-03T00:26:04.181Z,70.88
2018-11-03T00:28:33.293Z,72.09
2018-11-03T00:31:02.407Z,71.10
2018-11-03T00:33:31.947Z,70.70
2018-11-03T00:36:00.866Z,69.83
2018-11-03T00:38:29.243Z,69.68
2018-11-03T00:40:57.461Z,69.51
2018-11-03T00:43:25.862Z,69.37
2018-11-03T00:45:54.056Z,70.56
2018-11-03T00:48:22.336Z,69.52
2018-11-03T00:50:50.641Z,70.07
2018-11-03T00:53:18.745Z,70.12
2018-11-03T00:55:47.074Z,70.13
2018-11-03T00:58:15.167Z,69.67
2018-11-03T01:00:43.415Z,68.82
2018-11-03T01:03:11.579Z,69.79
2018-11-03T01:05:39.695Z,68.30
2018-11-03T01:08:07.790Z,69.74
2018-11-03T01:10:35.909Z,69.11
2018-11-03T01:13:04.056Z,69.88
2018-11-03T01:15:32.171Z,70.32
2018-11-03T01:18:00.255Z,69.45
2018-11-03T01:20:28.408Z,69.08
2018-11-03T01:22:56.636Z,68.98
2018-11-03T01:25:24.755Z,69.53
2018-11-03T01:27:52.986Z,69.01
2018-11-03T01:30:21.296Z,69.83
2018-11-03T01:32:49.600Z,69.14
2018-11-03T01:35:17.796Z,69.17
2018-11-03T01:37:45.883Z,71.87
2018-11-03T01:40:14.477Z,73.94
2018-11-03T01:42:42.759Z,73.95
2018-11-03T01:45:10.887Z,75.19
2018-11-03T01:47:38.996Z,76.40
2018-11-03T01:50:08.502Z,79.05
2018-11-03T01:52:37.227Z,79.71
2018-11-03T01:55:05.388Z,79.86
2018-11-03T01:57:33.475Z,80.66
2018-11-03T02:00:01.606Z,80.80
2018-11-03T02:02:29.853Z,80.95
2018-11-03T02:04:57.979Z,81.10
2018-11-03T02:07:26.088Z,80.96
2018-11-03T02:09:54.280Z,80.97
2018-11-03T02:12:22.404Z,80.37
2018-11-03T02:14:50.531Z,81.65
2018-11-03T02:17:18.759Z,82.31
2018-11-03T02:19:46.867Z,82.66
2018-11-03T02:22:14.955Z,82.53
2018-11-03T02:24:43.079Z,80.76
2018-11-03T02:27:11.180Z,76.35
2018-11-03T02:29:39.285Z,73.56
2018-11-03T02:32:07.371Z,73.21
2018-11-03T02:34:35.477Z,72.80
2018-11-03T02:37:03.596Z,72.82
2018-11-03T02:39:31.811Z,73.30
2018-11-03T02:41:59.961Z,73.60
2018-11-03T02:44:28.163Z,76.42
2018-11-03T02:46:56.291Z,76.99
2018-11-03T02:49:24.382Z,76.29
2018-11-03T02:51:52.517Z,74.43
2018-11-03T02:54:20.634Z,73.76
2018-11-03T02:56:48.752Z,74.65
2018-11-03T02:59:16.861Z,72.30
2018-11-03T03:01:45.052Z,72.14
2018-11-03T03:04:13.135Z,72.03
2018-11-03T03:06:41.224Z,72.77
2018-11-03T03:09:09.328Z,72.76
2018-11-03T03:11:37.421Z,73.18
2018-11-03T03:14:05.618Z,73.77
2018-11-03T03:16:33.707Z,73.35
2018-11-03T03:19:01.867Z,73.45
2018-11-03T03:21:29.960Z,73.76
2018-11-03T03:23:58.063Z,73.48
2018-11-03T03:26:26.196Z,73.55
2018-11-03T03:28:54.394Z,73.13
2018-11-03T03:31:22.407Z,73.39
2018-11-03T03:33:50.475Z,73.06
2018-11-03T03:36:18.609Z,73.20
2018-11-03T03:38:46.717Z,73.69
2018-11-03T03:41:14.835Z,73.16
2018-11-03T03:43:42.987Z,73.09
2018-11-03T03:46:11.100Z,73.19
2018-11-03T03:48:39.192Z,72.76
2018-11-03T03:51:07.350Z,73.17
2018-11-03T03:53:35.410Z,73.37
2018-11-03T03:56:03.519Z,73.32
2018-11-03T03:58:31.616Z,73.50
2018-11-03T04:00:59.727Z,73.89
2018-11-03T04:03:27.851Z,73.78
2018-11-03T04:05:55.963Z,73.82
2018-11-03T04:08:24.076Z,74.54
2018-11-03T04:10:52.185Z,75.16
2018-11-03T04:13:20.312Z,74.74
2018-11-03T04:15:48.436Z,74.66
2018-11-03T04:18:16.522Z,74.95
2018-11-03T04:20:44.803Z,75.12
2018-11-03T04:23:13.063Z,74.42
2018-11-03T04:25:41.833Z,74.96
2018-11-03T04:28:09.931Z,75.13
2018-11-03T04:30:38.077Z,75.22
2018-11-03T04:33:06.187Z,74.75
2018-11-03T04:35:34.328Z,75.05
2018-11-03T04:38:02.396Z,75.92
2018-11-03T04:40:30.483Z,75.87
2018-11-03T04:42:58.585Z,76.15
2018-11-03T04:45:26.680Z,76.30
2018-11-03T04:47:54.786Z,77.06
2018-11-03T04:50:22.896Z,77.35
2018-11-03T04:52:51.039Z,78.04
2018-11-03T04:55:19.348Z,77.21
2018-11-03T04:57:47.362Z,76.64
2018-11-03T05:00:15.456Z,76.41
2018-11-03T05:02:43.664Z,77.24
2018-11-03T05:05:11.765Z,77.04
2018-11-03T05:07:39.911Z,77.66
2018-11-03T05:10:08.613Z,77.94
2018-11-03T05:12:37.195Z,78.28
2018-11-03T05:15:05.383Z,78.33
2018-11-03T05:17:33.522Z,78.45
2018-11-03T05:20:01.644Z,78.45
2018-11-03T05:22:29.746Z,77.84
2018-11-03T05:24:57.852Z,78.23
2018-11-03T05:27:25.991Z,77.93
2018-11-03T05:29:54.114Z,78.46
2018-11-03T05:32:22.295Z,78.57
2018-11-03T05:34:50.409Z,78.68
2018-11-03T05:37:18.567Z,78.52
2018-11-03T05:39:46.674Z,78.76
2018-11-03T05:42:14.771Z,78.71
2018-11-03T05:44:42.875Z,78.52
2018-11-03T05:47:11.049Z,78.51
2018-11-03T05:49:39.127Z,79.37
2018-11-03T05:52:07.235Z,78.84
2018-11-03T05:54:35.319Z,78.31
2018-11-03T05:57:03.456Z,79.23
2018-11-03T05:59:31.565Z,79.76
2018-11-03T06:01:59.738Z,79.52
2018-11-03T06:04:27.826Z,79.42
2018-11-03T06:06:55.943Z,79.61
2018-11-03T06:09:24.039Z,80.29
2018-11-03T06:11:52.176Z,80.02
2018-11-03T06:14:20.299Z,79.40
2018-11-03T06:16:48.413Z,79.47
2018-11-03T06:19:16.516Z,80.41
2018-11-03T06:21:44.607Z,79.92
2018-11-03T06:24:12.691Z,80.42
2018-11-03T06:26:40.882Z,80.07
2018-11-03T06:29:08.991Z,80.52
2018-11-03T06:31:37.084Z,79.92
2018-11-03T06:34:05.389Z,80.37
2018-11-03T06:36:33.512Z,80.83
2018-11-03T06:39:01.749Z,81.00
2018-11-03T06:41:29.927Z,80.81
2018-11-03T06:43:58.019Z,80.48
2018-11-03T06:46:26.154Z,80.61
2018-11-03T06:48:58.427Z,81.16
2018-11-03T06:51:26.544Z,80.89
2018-11-03T06:53:54.673Z,80.33
2018-11-03T06:56:22.809Z,80.38
2018-11-03T06:58:50.979Z,80.15
2018-11-03T07:01:19.038Z,80.42
2018-11-03T07:03:47.135Z,80.36
2018-11-03T07:06:15.221Z,80.59
2018-11-03T07:08:43.319Z,80.17
2018-11-03T07:11:11.427Z,80.81
2018-11-03T07:13:39.557Z,80.86
2018-11-03T07:16:08.059Z,80.48
2018-11-03T07:18:36.342Z,80.07
2018-11-03T07:21:04.463Z,80.28
2018-11-03T07:23:32.549Z,79.87
2018-11-03T07:26:00.699Z,79.49
2018-11-03T07:28:28.803Z,79.21
2018-11-03T07:30:56.912Z,78.90
2018-11-03T07:33:24.993Z,78.45
2018-11-03T07:35:53.084Z,78.28
2018-11-03T07:38:21.204Z,77.93
2018-11-03T07:40:49.388Z,78.18
2018-11-03T07:43:17.430Z,78.24
2018-11-03T07:45:45.562Z,77.68
2018-11-03T07:48:13.730Z,77.83
2018-11-03T07:50:41.748Z,77.96
2018-11-03T07:53:09.904Z,77.35
2018-11-03T07:55:37.986Z,77.09
2018-11-03T07:58:06.155Z,76.83
2018-11-03T08:00:34.330Z,75.79
2018-11-03T08:03:02.343Z,76.15
2018-11-03T08:05:30.434Z,76.01
2018-11-03T08:07:58.552Z,75.77
2018-11-03T08:10:26.728Z,75.72
2018-11-03T08:12:55.050Z,75.45
2018-11-03T08:15:23.138Z,75.04
2018-11-03T08:17:51.366Z,74.98
2018-11-03T08:20:19.517Z,74.98
2018-11-03T08:22:54.273Z,74.85
2018-11-03T08:25:22.375Z,74.83
2018-11-03T08:27:50.492Z,74.68
2018-11-03T08:30:18.582Z,74.95
2018-11-03T08:32:46.693Z,75.00
2018-11-03T08:35:14.816Z,74.55
2018-11-03T08:37:42.926Z,73.99
2018-11-03T08:40:12.154Z,73.89
2018-11-03T08:42:40.795Z,73.47
2018-11-03T08:45:09.488Z,73.44
2018-11-03T08:47:37.604Z,73.40
2018-11-03T08:50:07.177Z,73.62
2018-11-03T08:52:35.253Z,73.55
2018-11-03T08:55:03.382Z,73.29
2018-11-03T08:57:31.475Z,73.40
2018-11-03T08:59:59.597Z,73.46
2018-11-03T09:02:27.669Z,73.15
2018-11-03T09:04:55.769Z,73.50
2018-11-03T09:07:23.880Z,73.92
2018-11-03T09:09:51.980Z,73.70
2018-11-03T09:12:20.179Z,73.75
2018-11-03T09:14:48.371Z,73.52
2018-11-03T09:17:16.424Z,73.31
2018-11-03T09:19:44.540Z,73.17
2018-11-03T09:22:12.647Z,72.73
2018-11-03T09:24:40.768Z,73.23
2018-11-03T09:27:08.879Z,72.63
2018-11-03T09:29:36.986Z,72.58
2018-11-03T09:32:05.508Z,72.87
2018-11-03T09:34:33.447Z,72.34
2018-11-03T09:37:01.576Z,72.08
2018-11-03T09:39:29.684Z,71.69
2018-11-03T09:41:57.781Z,71.79
2018-11-03T09:44:25.900Z,72.07
2018-11-03T09:46:53.984Z,72.17
2018-11-03T09:49:22.088Z,71.40
2018-11-03T09:51:50.167Z,71.27
2018-11-03T09:54:18.288Z,71.41
2018-11-03T09:56:46.474Z,71.16
2018-11-03T09:59:14.476Z,71.13
2018-11-03T10:01:42.564Z,70.92
2018-11-03T10:04:10.667Z,70.88
2018-11-03T10:06:38.840Z,70.60
2018-11-03T10:09:07.520Z,69.84
2018-11-03T10:11:35.635Z,69.21
2018-11-03T10:14:03.750Z,69.85
2018-11-03T10:16:31.882Z,69.53
2018-11-03T10:19:00.063Z,69.43
2018-11-03T10:21:28.175Z,68.35
2018-11-03T10:23:56.288Z,68.48
2018-11-03T10:26:24.415Z,68.39
2018-11-03T10:28:52.647Z,69.13
2018-11-03T10:31:20.771Z,68.95
2018-11-03T10:33:48.975Z,68.21
2018-11-03T10:36:16.995Z,67.91
2018-11-03T10:38:45.127Z,68.40
2018-11-03T10:41:13.227Z,68.10
2018-11-03T10:43:41.338Z,67.58
2018-11-03T10:46:09.452Z,67.64
2018-11-03T10:48:37.555Z,68.33
2018-11-03T10:51:06.666Z,68.09
2018-11-03T10:53:34.831Z,67.17
2018-11-03T10:56:02.895Z,67.42
2018-11-03T10:58:30.987Z,66.71
2018-11-03T11:01:04.431Z,67.28
2018-11-03T11:03:38.036Z,66.78
2018-11-03T11:06:11.449Z,66.44
2018-11-03T11:08:45.008Z,66.37
2018-11-03T11:11:18.635Z,66.62
2018-11-03T11:13:47.241Z,66.38
2018-11-03T11:16:15.371Z,66.41
2018-11-03T11:18:43.456Z,66.21
2018-11-03T11:21:11.652Z,66.62
2018-11-03T11:23:39.877Z,66.69
2018-11-03T11:26:07.880Z,66.62
2018-11-03T11:28:36.084Z,65.70
2018-11-03T11:31:04.156Z,65.27
2018-11-03T11:33:32.334Z,64.83
2018-11-03T11:36:00.483Z,65.39
2018-11-03T11:38:28.895Z,65.15
2018-11-03T11:40:57.868Z,64.90
2018-11-03T11:43:25.966Z,65.40
2018-11-03T11:45:54.067Z,64.96
2018-11-03T11:48:22.178Z,65.06
2018-11-03T11:50:50.310Z,65.37
2018-11-03T11:53:18.403Z,64.93
2018-11-03T11:55:46.509Z,64.41
2018-11-03T11:58:14.619Z,64.19
2018-11-03T12:00:42.792Z,63.95
2018-11-03T12:03:11.049Z,63.62
2018-11-03T12:05:39.171Z,63.06
2018-11-03T12:08:07.295Z,62.79
2018-11-03T12:10:35.418Z,62.23
2018-11-03T12:13:03.604Z,62.33
2018-11-03T12:15:31.712Z,61.91
2018-11-03T12:17:59.809Z,61.34
2018-11-03T12:20:28.003Z,61.25
2018-11-03T12:22:56.761Z,61.37
2018-11-03T12:25:24.869Z,61.79
2018-11-03T12:27:52.999Z,62.13
2018-11-03T12:30:21.120Z,61.34
2018-11-03T12:32:49.287Z,60.23
2018-11-03T12:35:17.430Z,60.85
2018-11-03T12:37:45.564Z,60.32
2018-11-03T12:40:14.746Z,60.80
2018-11-03T12:42:42.874Z,60.15
2018-11-03T12:45:11.557Z,60.75
2018-11-03T12:47:40.001Z,60.33
2018-11-03T12:50:09.932Z,60.60
2018-11-03T12:52:38.045Z,60.45
2018-11-03T12:55:07.850Z,60.66
2018-11-03T12:57:35.927Z,60.96
2018-11-03T13:00:04.075Z,61.03
2018-11-03T13:02:32.163Z,60.57
2018-11-03T13:05:00.346Z,60.57
2018-11-03T13:07:28.373Z,61.16
2018-11-03T13:09:56.491Z,60.30
2018-11-03T13:12:24.587Z,60.86
2018-11-03T13:14:52.711Z,61.11
2018-11-03T13:17:20.828Z,60.20
2018-11-03T13:19:49.019Z,60.70
2018-11-03T13:22:17.117Z,61.04
2018-11-03T13:24:45.223Z,61.04
2018-11-03T13:27:13.331Z,60.71
2018-11-03T13:29:41.465Z,61.38
2018-11-03T13:32:09.702Z,61.56
2018-11-03T13:34:37.796Z,61.04
2018-11-03T13:37:06.124Z,61.78
2018-11-03T13:39:34.219Z,62.06
2018-11-03T13:42:02.308Z,61.16
2018-11-03T13:44:30.411Z,61.68
2018-11-03T13:46:58.530Z,61.92
2018-11-03T13:49:26.639Z,61.57
2018-11-03T13:51:54.754Z,62.06
2018-11-03T13:54:22.848Z,61.75
2018-11-03T13:56:50.984Z,62.04
2018-11-03T13:59:19.099Z,62.96
2018-11-03T14:01:47.211Z,62.14
2018-11-03T14:04:15.330Z,62.71
2018-11-03T14:06:43.448Z,62.64
2018-11-03T14:09:11.783Z,63.09
2018-11-03T14:11:39.897Z,62.97
2018-11-03T14:14:08.031Z,62.13
2018-11-03T14:16:36.227Z,62.41
2018-11-03T14:19:04.325Z,62.35
2018-11-03T14:21:32.443Z,63.02
2018-11-03T14:24:00.892Z,62.68
2018-11-03T14:26:29.088Z,62.52
2018-11-03T14:28:57.254Z,62.36
2018-11-03T14:31:25.316Z,62.05
2018-11-03T14:33:53.423Z,62.34
2018-11-03T14:36:21.644Z,62.24
2018-11-03T14:38:49.720Z,62.11
2018-11-03T14:41:17.862Z,63.07
2018-11-03T14:43:46.829Z,62.51
2018-11-03T14:46:15.486Z,62.84
2018-11-03T14:48:52.679Z,62.55
2018-11-03T14:51:25.674Z,63.00
2018-11-03T14:53:55.020Z,62.97
2018-11-03T14:56:26.864Z,62.28
2018-11-03T14:59:00.346Z,62.85
2018-11-03T15:01:53.398Z,62.40
2018-11-03T15:04:37.499Z,63.26
2018-11-03T15:07:07.252Z,62.49
2018-11-03T15:09:37.471Z,62.41
2018-11-03T15:12:07.657Z,63.10
2018-11-03T15:14:37.300Z,62.95
2018-11-03T15:17:06.748Z,63.87
2018-11-03T15:19:37.263Z,63.41
2018-11-03T15:22:09.276Z,63.46
2018-11-03T15:24:38.758Z,63.63
2018-11-03T15:27:08.551Z,63.11
2018-11-03T15:32:22.770Z,63.50
2018-11-03T15:34:52.365Z,63.45
2018-11-03T15:37:21.943Z,64.51
2018-11-03T15:39:51.279Z,64.40
2018-11-03T15:42:21.973Z,64.67
2018-11-03T15:44:51.544Z,64.25
2018-11-03T15:47:20.508Z,64.79
2018-11-03T15:49:49.180Z,64.45
2018-11-03T15:52:19.220Z,64.52
2018-11-03T15:54:47.474Z,64.64
2018-11-03T15:57:20.529Z,64.11
2018-11-03T15:59:49.088Z,64.84
2018-11-03T16:02:19.182Z,65.09
2018-11-03T16:04:52.123Z,65.15
2018-11-03T16:07:21.594Z,65.82
2018-11-03T16:09:53.926Z,65.95
2018-11-03T16:12:22.747Z,65.98
2018-11-03T16:14:50.868Z,66.07
2018-11-03T16:17:18.981Z,66.36
2018-11-03T16:19:47.265Z,66.73
2018-11-03T16:22:15.214Z,66.47
2018-11-03T16:24:43.271Z,66.56
2018-11-03T16:27:11.381Z,67.60
2018-11-03T16:29:39.481Z,67.55
2018-11-03T16:32:07.671Z,67.89
2018-11-03T16:34:35.685Z,68.01
2018-11-03T16:37:03.779Z,68.04
2018-11-03T16:39:31.879Z,67.97
2018-11-03T16:41:59.987Z,68.19
2018-11-03T16:44:36.228Z,67.88
2018-11-03T16:47:04.431Z,68.63
2018-11-03T16:49:32.535Z,68.70
2018-11-03T16:52:00.653Z,68.68
2018-11-03T16:54:29.988Z,69.09
2018-11-03T16:56:58.101Z,68.76
2018-11-03T16:59:26.407Z,68.84
2018-11-03T17:01:54.502Z,69.91
2018-11-03T17:04:22.664Z,69.79
2018-11-03T17:06:50.843Z,69.46
2018-11-03T17:09:18.902Z,69.44
2018-11-03T17:11:47.087Z,69.76
2018-11-03T17:14:15.216Z,69.80
2018-11-03T17:16:43.373Z,70.56
2018-11-03T17:19:11.588Z,70.67
2018-11-03T17:21:39.921Z,70.92
2018-11-03T17:24:08.013Z,70.92
2018-11-03T17:26:36.128Z,70.82
2018-11-03T17:29:04.226Z,70.69
2018-11-03T17:31:32.349Z,71.69
2018-11-03T17:34:00.651Z,71.25
2018-11-03T17:36:28.897Z,70.91
2018-11-03T17:38:56.862Z,71.86
2018-11-03T17:41:24.995Z,72.30
2018-11-03T17:43:53.132Z,72.87
2018-11-03T17:46:21.243Z,72.39
2018-11-03T17:48:49.342Z,73.09
2018-11-03T17:51:17.467Z,73.08
2018-11-03T17:53:45.563Z,72.87
2018-11-03T17:56:13.680Z,73.11
2018-11-03T17:58:41.792Z,73.15
2018-11-03T18:01:10.181Z,73.69
2018-11-03T18:03:38.201Z,73.79
2018-11-03T18:06:06.450Z,73.69
2018-11-03T18:08:34.527Z,74.12
2018-11-03T18:11:02.636Z,74.32
2018-11-03T18:13:30.747Z,74.40
2018-11-03T18:15:58.996Z,74.78
2018-11-03T18:18:27.089Z,74.59
2018-11-03T18:20:55.187Z,74.49
2018-11-03T18:23:23.364Z,74.77
2018-11-03T18:25:51.607Z,75.28
2018-11-03T18:28:19.724Z,75.06
2018-11-03T18:30:47.862Z,74.65
2018-11-03T18:33:16.058Z,75.29
2018-11-03T18:35:44.057Z,75.55
2018-11-03T18:38:12.204Z,75.78
2018-11-03T18:40:40.326Z,76.48
2018-11-03T18:43:08.488Z,75.79
2018-11-03T18:45:36.633Z,76.23
2018-11-03T18:48:04.878Z,76.89
2018-11-03T18:50:32.968Z,76.40
2018-11-03T18:53:01.060Z,76.96
2018-11-03T18:55:29.152Z,77.02
2018-11-03T18:57:57.292Z,77.03
2018-11-03T19:00:25.382Z,77.21
2018-11-03T19:02:53.503Z,77.23
2018-11-03T19:05:23.179Z,77.66
2018-11-03T19:07:55.181Z,78.23
2018-11-03T19:10:25.771Z,77.22
2018-11-03T19:13:02.464Z,77.67
2018-11-03T19:15:32.320Z,78.14
2018-11-03T19:18:02.477Z,78.55
2018-11-03T19:20:31.486Z,78.35
2018-11-03T19:23:01.750Z,78.45
2018-11-03T19:25:29.991Z,78.00
2018-11-03T19:27:58.234Z,78.26
2018-11-03T19:30:27.361Z,77.92
2018-11-03T19:32:56.201Z,78.59
2018-11-03T19:35:24.481Z,77.79
2018-11-03T19:37:53.015Z,78.20
2018-11-03T19:40:21.303Z,78.20
2018-11-03T19:42:50.819Z,78.03
2018-11-03T19:45:19.601Z,78.14
2018-11-03T19:47:49.784Z,78.76
2018-11-03T19:50:18.458Z,78.67
2018-11-03T19:52:48.973Z,78.13
2018-11-03T19:55:30.028Z,78.32
2018-11-03T19:57:58.683Z,78.49
2018-11-03T20:00:27.906Z,77.59
2018-11-03T20:03:02.836Z,77.57
2018-11-03T20:05:31.000Z,77.46
2018-11-03T20:07:59.593Z,77.67
2018-11-03T20:10:40.960Z,77.60
2018-11-03T20:13:09.184Z,77.68
2018-11-03T20:15:43.270Z,77.61
2018-11-03T20:18:15.100Z,77.78
2018-11-03T20:20:43.401Z,77.76
2018-11-03T20:23:17.538Z,77.95
2018-11-03T20:25:46.288Z,77.33
2018-11-03T20:28:15.353Z,77.54
2018-11-03T20:30:44.364Z,77.28
2018-11-03T20:33:14.770Z,77.20
2018-11-03T20:35:44.134Z,77.34
2018-11-03T20:38:13.661Z,77.60
2018-11-03T20:40:42.274Z,77.51
2018-11-03T20:43:11.195Z,77.55
2018-11-03T20:45:40.280Z,77.28
2018-11-03T20:48:08.620Z,76.98
2018-11-03T20:50:38.360Z,77.51
2018-11-03T20:53:07.201Z,78.04
2018-11-03T20:55:36.399Z,77.83
2018-11-03T20:58:06.795Z,77.24
2018-11-03T21:00:36.390Z,77.26
2018-11-03T21:03:06.050Z,77.31
2018-11-03T21:05:35.336Z,77.35
2018-11-03T21:08:04.834Z,77.56
2018-11-03T21:10:33.771Z,77.65
2018-11-03T21:13:02.183Z,77.23
2018-11-03T21:15:31.476Z,77.63
2018-11-03T21:18:00.131Z,77.50
2018-11-03T21:20:29.779Z,78.00
2018-11-03T21:23:05.315Z,77.52
2018-11-03T21:25:45.205Z,77.46
2018-11-03T21:28:17.135Z,77.85
2018-11-03T21:30:47.139Z,77.41
2018-11-03T21:33:15.790Z,77.61
2018-11-03T21:35:46.513Z,77.33
2018-11-03T21:38:16.173Z,77.60
2018-11-03T21:40:46.495Z,77.42
2018-11-03T21:43:17.673Z,77.95
2018-11-03T21:45:47.136Z,76.98
2018-11-03T21:48:18.028Z,77.21
2018-11-03T21:50:48.314Z,77.60
2018-11-03T21:53:18.057Z,77.55
2018-11-03T21:55:47.571Z,77.77
2018-11-03T21:58:17.865Z,77.17
2018-11-03T22:03:57.104Z,77.53
2018-11-03T22:06:27.281Z,77.97
2018-11-03T22:09:03.737Z,77.97
2018-11-03T22:11:32.976Z,78.26
2018-11-03T22:14:02.825Z,77.63
2018-11-03T22:16:36.420Z,77.95
2018-11-03T22:19:05.726Z,77.86
2018-11-03T22:21:35.033Z,77.61
2018-11-03T22:24:04.523Z,77.44
2018-11-03T22:26:34.412Z,78.34
2018-11-03T22:29:03.537Z,77.49
2018-11-03T22:31:32.816Z,77.65
2018-11-03T22:34:02.346Z,77.37
2018-11-03T22:36:31.881Z,77.62
2018-11-03T22:39:01.288Z,77.36
2018-11-03T22:41:30.979Z,77.83
2018-11-03T22:43:59.841Z,77.10
2018-11-03T22:46:35.273Z,76.93
2018-11-03T22:49:03.878Z,77.92
2018-11-03T22:51:32.774Z,77.58
2018-11-03T22:54:01.329Z,76.80
2018-11-03T22:56:30.745Z,76.48
2018-11-03T22:59:00.263Z,77.19
2018-11-03T23:01:34.650Z,78.08
2018-11-03T23:04:03.562Z,77.55
2018-11-03T23:06:35.941Z,76.67
2018-11-03T23:09:08.248Z,77.63
2018-11-03T23:11:37.369Z,77.51
2018-11-03T23:14:07.441Z,78.16
2018-11-03T23:16:38.265Z,77.72
2018-11-03T23:19:07.443Z,77.56
2018-11-03T23:21:35.761Z,77.31
2018-11-03T23:24:05.197Z,77.65
2018-11-03T23:26:33.602Z,77.52
2018-11-03T23:29:04.653Z,77.24
2018-11-03T23:31:37.461Z,77.65
2018-11-03T23:34:05.969Z,77.29
2018-11-03T23:36:37.056Z,77.16
2018-11-03T23:39:10.269Z,77.49
2018-11-03T23:41:39.979Z,77.56
2018-11-03T23:44:09.938Z,77.71
2018-11-03T23:46:40.501Z,77.76
2018-11-03T23:49:10.833Z,78.16
2018-11-03T23:51:41.370Z,78.47
2018-11-03T23:54:13.129Z,77.97
2018-11-03T23:56:42.478Z,78.56
2018-11-03T23:59:12.213Z,78.63
